sensor_id;sensor_type;location;lat;lon;timestamp;P1;durP1;ratioP1;P2;durP2;ratioP2
20179;SDS011;10249;48.900;9.090;2023-04-24T00:00:53;8.40;;;8.10;;
20179;SDS011;10249;48.900;9.090;2023-04-24T00:03:21;7.90;;;7.60;;
20179;SDS011;10249;48.900;9.090;2023-04-24T00:05:48;8.20;;;7.90;;
20179;SDS011;10249;48.900;9.090;2023-04-24T00:08:16;8.20;;;7.90;;
20179;SDS011;10249;48.900;9.090;2023-04-24T00:10:44;8.10;;;7.80;;
20179;SDS011;10249;48.900;9.090;2023-04-24T00:13:11;8.20;;;7.90;;
20179;SDS011;10249;48.900;9.090;2023-04-24T00:15:38;8.37;;;8.07;;
20179;SDS011;10249;48.900;9.090;2023-04-24T00:18:06;8.13;;;7.83;;
20179;SDS011;10249;48.900;9.090;2023-04-24T00:20:33;8.53;;;8.23;;
20179;SDS011;10249;48.900;9.090;2023-04-24T00:23:01;8.30;;;8.00;;
20179;SDS011;10249;48.900;9.090;2023-04-24T00:25:28;8.87;;;8.57;;
20179;SDS011;10249;48.900;9.090;2023-04-24T00:27:57;8.47;;;8.17;;
20179;SDS011;10249;48.900;9.090;2023-04-24T00:30:24;8.50;;;8.20;;
20179;SDS011;10249;48.900;9.090;2023-04-24T00:32:51;8.50;;;8.20;;
20179;SDS011;10249;48.900;9.090;2023-04-24T00:35:18;8.43;;;8.13;;
20179;SDS011;10249;48.900;9.090;2023-04-24T00:37:45;8.80;;;8.50;;
20179;SDS011;10249;48.900;9.090;2023-04-24T00:40:12;9.20;;;8.80;;
20179;SDS011;10249;48.900;9.090;2023-04-24T00:42:40;9.23;;;8.90;;
20179;SDS011;10249;48.900;9.090;2023-04-24T00:45:09;9.07;;;8.77;;
20179;SDS011;10249;48.900;9.090;2023-04-24T00:47:36;9.33;;;8.93;;
20179;SDS011;10249;48.900;9.090;2023-04-24T00:50:03;9.30;;;8.90;;
20179;SDS011;10249;48.900;9.090;2023-04-24T00:52:31;9.00;;;8.63;;
20179;SDS011;10249;48.900;9.090;2023-04-24T00:54:58;9.20;;;8.80;;
20179;SDS011;10249;48.900;9.090;2023-04-24T00:57:25;9.23;;;8.93;;
20179;SDS011;10249;48.900;9.090;2023-04-24T00:59:53;9.43;;;9.13;;
20179;SDS011;10249;48.900;9.090;2023-04-24T01:02:22;9.20;;;8.90;;
20179;SDS011;10249;48.900;9.090;2023-04-24T01:04:50;9.30;;;9.00;;
20179;SDS011;10249;48.900;9.090;2023-04-24T01:07:17;9.90;;;9.50;;
20179;SDS011;10249;48.900;9.090;2023-04-24T01:09:45;9.63;;;9.23;;
20179;SDS011;10249;48.900;9.090;2023-04-24T01:12:13;9.10;;;8.80;;
20179;SDS011;10249;48.900;9.090;2023-04-24T01:14:41;9.23;;;8.93;;
20179;SDS011;10249;48.900;9.090;2023-04-24T01:17:08;9.27;;;8.97;;
20179;SDS011;10249;48.900;9.090;2023-04-24T01:19:37;9.37;;;9.07;;
20179;SDS011;10249;48.900;9.090;2023-04-24T01:22:08;9.40;;;9.10;;
20179;SDS011;10249;48.900;9.090;2023-04-24T01:24:36;9.40;;;9.10;;
20179;SDS011;10249;48.900;9.090;2023-04-24T01:27:03;9.00;;;8.70;;
20179;SDS011;10249;48.900;9.090;2023-04-24T01:29:30;9.10;;;8.80;;
20179;SDS011;10249;48.900;9.090;2023-04-24T01:31:58;9.70;;;9.20;;
20179;SDS011;10249;48.900;9.090;2023-04-24T01:34:25;8.90;;;8.60;;
20179;SDS011;10249;48.900;9.090;2023-04-24T01:36:52;9.30;;;9.00;;
20179;SDS011;10249;48.900;9.090;2023-04-24T01:39:22;8.90;;;8.60;;
20179;SDS011;10249;48.900;9.090;2023-04-24T01:41:50;8.93;;;8.63;;
20179;SDS011;10249;48.900;9.090;2023-04-24T01:44:18;9.10;;;8.70;;
20179;SDS011;10249;48.900;9.090;2023-04-24T01:46:46;8.67;;;8.37;;
20179;SDS011;10249;48.900;9.090;2023-04-24T01:49:13;9.10;;;8.60;;
20179;SDS011;10249;48.900;9.090;2023-04-24T01:51:40;9.20;;;8.80;;
20179;SDS011;10249;48.900;9.090;2023-04-24T01:54:07;9.10;;;8.70;;
20179;SDS011;10249;48.900;9.090;2023-04-24T01:56:36;8.80;;;8.50;;
20179;SDS011;10249;48.900;9.090;2023-04-24T01:59:03;8.80;;;8.50;;
20179;SDS011;10249;48.900;9.090;2023-04-24T02:01:32;9.00;;;8.60;;
20179;SDS011;10249;48.900;9.090;2023-04-24T02:04:00;8.50;;;8.20;;
20179;SDS011;10249;48.900;9.090;2023-04-24T02:06:27;8.40;;;8.10;;
20179;SDS011;10249;48.900;9.090;2023-04-24T02:08:56;8.80;;;8.50;;
20179;SDS011;10249;48.900;9.090;2023-04-24T02:11:23;8.40;;;8.10;;
20179;SDS011;10249;48.900;9.090;2023-04-24T02:13:51;8.20;;;7.90;;
20179;SDS011;10249;48.900;9.090;2023-04-24T02:16:18;8.10;;;7.80;;
20179;SDS011;10249;48.900;9.090;2023-04-24T02:18:46;8.40;;;8.00;;
20179;SDS011;10249;48.900;9.090;2023-04-24T02:21:13;8.30;;;8.00;;
20179;SDS011;10249;48.900;9.090;2023-04-24T02:23:40;8.30;;;8.00;;
20179;SDS011;10249;48.900;9.090;2023-04-24T02:26:07;7.80;;;7.60;;
20179;SDS011;10249;48.900;9.090;2023-04-24T02:28:34;7.80;;;7.60;;
20179;SDS011;10249;48.900;9.090;2023-04-24T02:31:03;8.00;;;7.70;;
20179;SDS011;10249;48.900;9.090;2023-04-24T02:33:30;7.60;;;7.40;;
20179;SDS011;10249;48.900;9.090;2023-04-24T02:35:57;7.20;;;7.00;;
20179;SDS011;10249;48.900;9.090;2023-04-24T02:38:24;7.27;;;7.07;;
20179;SDS011;10249;48.900;9.090;2023-04-24T02:40:51;6.33;;;6.13;;
20179;SDS011;10249;48.900;9.090;2023-04-24T02:43:27;8.10;;;7.70;;
20179;SDS011;10249;48.900;9.090;2023-04-24T02:45:55;5.77;;;5.57;;
20179;SDS011;10249;48.900;9.090;2023-04-24T02:48:22;5.57;;;5.37;;
20179;SDS011;10249;48.900;9.090;2023-04-24T02:50:49;5.50;;;5.30;;
20179;SDS011;10249;48.900;9.090;2023-04-24T02:53:16;4.90;;;4.80;;
20179;SDS011;10249;48.900;9.090;2023-04-24T02:55:43;5.20;;;5.00;;
20179;SDS011;10249;48.900;9.090;2023-04-24T02:58:11;5.50;;;5.20;;
20179;SDS011;10249;48.900;9.090;2023-04-24T03:00:40;5.30;;;5.00;;
20179;SDS011;10249;48.900;9.090;2023-04-24T03:03:08;5.57;;;5.33;;
20179;SDS011;10249;48.900;9.090;2023-04-24T03:05:35;5.20;;;5.00;;
20179;SDS011;10249;48.900;9.090;2023-04-24T03:08:02;5.07;;;4.87;;
20179;SDS011;10249;48.900;9.090;2023-04-24T03:10:29;5.03;;;4.87;;
20179;SDS011;10249;48.900;9.090;2023-04-24T03:12:57;5.17;;;4.97;;
20179;SDS011;10249;48.900;9.090;2023-04-24T03:15:24;4.97;;;4.80;;
20179;SDS011;10249;48.900;9.090;2023-04-24T03:17:52;4.87;;;4.77;;
20179;SDS011;10249;48.900;9.090;2023-04-24T03:20:20;4.53;;;4.43;;
20179;SDS011;10249;48.900;9.090;2023-04-24T03:22:47;5.07;;;4.87;;
20179;SDS011;10249;48.900;9.090;2023-04-24T03:25:14;4.67;;;4.57;;
20179;SDS011;10249;48.900;9.090;2023-04-24T03:27:41;4.73;;;4.53;;
20179;SDS011;10249;48.900;9.090;2023-04-24T03:30:08;4.80;;;4.60;;
20179;SDS011;10249;48.900;9.090;2023-04-24T03:32:35;4.67;;;4.47;;
20179;SDS011;10249;48.900;9.090;2023-04-24T03:35:06;4.50;;;4.30;;
20179;SDS011;10249;48.900;9.090;2023-04-24T03:37:33;4.77;;;4.57;;
20179;SDS011;10249;48.900;9.090;2023-04-24T03:40:00;4.83;;;4.63;;
20179;SDS011;10249;48.900;9.090;2023-04-24T03:42:27;4.70;;;4.50;;
20179;SDS011;10249;48.900;9.090;2023-04-24T03:44:55;4.93;;;4.70;;
20179;SDS011;10249;48.900;9.090;2023-04-24T03:47:22;4.67;;;4.47;;
20179;SDS011;10249;48.900;9.090;2023-04-24T03:49:49;4.47;;;4.30;;
20179;SDS011;10249;48.900;9.090;2023-04-24T03:52:18;4.90;;;4.70;;
20179;SDS011;10249;48.900;9.090;2023-04-24T03:54:45;4.53;;;4.43;;
20179;SDS011;10249;48.900;9.090;2023-04-24T03:57:12;5.10;;;4.60;;
20179;SDS011;10249;48.900;9.090;2023-04-24T03:59:39;4.20;;;4.10;;
20179;SDS011;10249;48.900;9.090;2023-04-24T04:02:06;4.03;;;3.93;;
20179;SDS011;10249;48.900;9.090;2023-04-24T04:04:33;4.00;;;3.90;;
20179;SDS011;10249;48.900;9.090;2023-04-24T04:07:00;4.77;;;4.47;;
20179;SDS011;10249;48.900;9.090;2023-04-24T04:09:29;4.80;;;4.60;;
20179;SDS011;10249;48.900;9.090;2023-04-24T04:11:56;4.50;;;4.20;;
20179;SDS011;10249;48.900;9.090;2023-04-24T04:14:25;4.90;;;4.50;;
20179;SDS011;10249;48.900;9.090;2023-04-24T04:16:52;4.20;;;3.90;;
20179;SDS011;10249;48.900;9.090;2023-04-24T04:19:19;5.33;;;2.40;;
20179;SDS011;10249;48.900;9.090;2023-04-24T04:21:46;6.97;;;2.43;;
20179;SDS011;10249;48.900;9.090;2023-04-24T04:24:17;2.50;;;2.40;;
20179;SDS011;10249;48.900;9.090;2023-04-24T04:26:47;3.37;;;2.23;;
20179;SDS011;10249;48.900;9.090;2023-04-24T04:29:16;2.50;;;2.40;;
20179;SDS011;10249;48.900;9.090;2023-04-24T04:31:44;2.43;;;2.33;;
20179;SDS011;10249;48.900;9.090;2023-04-24T04:34:11;2.87;;;2.77;;
20179;SDS011;10249;48.900;9.090;2023-04-24T04:36:39;3.67;;;3.37;;
20179;SDS011;10249;48.900;9.090;2023-04-24T04:39:06;3.10;;;3.00;;
20179;SDS011;10249;48.900;9.090;2023-04-24T04:41:33;3.33;;;3.23;;
20179;SDS011;10249;48.900;9.090;2023-04-24T04:44:02;3.33;;;3.20;;
20179;SDS011;10249;48.900;9.090;2023-04-24T04:46:30;3.10;;;3.00;;
20179;SDS011;10249;48.900;9.090;2023-04-24T04:48:59;3.67;;;3.47;;
20179;SDS011;10249;48.900;9.090;2023-04-24T04:51:26;3.37;;;3.27;;
20179;SDS011;10249;48.900;9.090;2023-04-24T04:53:53;3.83;;;3.63;;
20179;SDS011;10249;48.900;9.090;2023-04-24T04:56:20;3.57;;;3.30;;
20179;SDS011;10249;48.900;9.090;2023-04-24T04:58:47;2.97;;;2.87;;
20179;SDS011;10249;48.900;9.090;2023-04-24T05:01:16;3.60;;;3.37;;
20179;SDS011;10249;48.900;9.090;2023-04-24T05:03:43;3.10;;;3.00;;
20179;SDS011;10249;48.900;9.090;2023-04-24T05:06:10;4.20;;;4.00;;
20179;SDS011;10249;48.900;9.090;2023-04-24T05:08:37;4.45;;;4.15;;
20179;SDS011;10249;48.900;9.090;2023-04-24T05:11:04;4.03;;;3.73;;
20179;SDS011;10249;48.900;9.090;2023-04-24T05:13:32;3.50;;;3.40;;
20179;SDS011;10249;48.900;9.090;2023-04-24T05:15:59;3.00;;;2.90;;
20179;SDS011;10249;48.900;9.090;2023-04-24T05:18:27;3.83;;;3.63;;
20179;SDS011;10249;48.900;9.090;2023-04-24T05:20:55;3.47;;;3.37;;
20179;SDS011;10249;48.900;9.090;2023-04-24T05:23:22;3.43;;;3.33;;
20179;SDS011;10249;48.900;9.090;2023-04-24T05:25:49;3.27;;;3.17;;
20179;SDS011;10249;48.900;9.090;2023-04-24T05:28:17;3.80;;;3.70;;
20179;SDS011;10249;48.900;9.090;2023-04-24T05:30:44;4.23;;;4.03;;
20179;SDS011;10249;48.900;9.090;2023-04-24T05:33:12;4.97;;;4.50;;
20179;SDS011;10249;48.900;9.090;2023-04-24T05:35:41;4.63;;;4.37;;
20179;SDS011;10249;48.900;9.090;2023-04-24T05:38:10;3.50;;;3.40;;
20179;SDS011;10249;48.900;9.090;2023-04-24T05:40:37;4.90;;;4.60;;
20179;SDS011;10249;48.900;9.090;2023-04-24T05:43:05;4.17;;;3.97;;
20179;SDS011;10249;48.900;9.090;2023-04-24T05:45:32;3.50;;;3.40;;
20179;SDS011;10249;48.900;9.090;2023-04-24T05:48:01;3.57;;;3.47;;
20179;SDS011;10249;48.900;9.090;2023-04-24T05:50:28;5.07;;;4.78;;
20179;SDS011;10249;48.900;9.090;2023-04-24T05:52:56;4.43;;;4.20;;
20179;SDS011;10249;48.900;9.090;2023-04-24T05:55:24;5.30;;;5.00;;
20179;SDS011;10249;48.900;9.090;2023-04-24T05:57:51;4.73;;;4.43;;
20179;SDS011;10249;48.900;9.090;2023-04-24T06:00:18;5.73;;;5.43;;
20179;SDS011;10249;48.900;9.090;2023-04-24T06:02:45;6.43;;;5.57;;
20179;SDS011;10249;48.900;9.090;2023-04-24T06:05:12;4.33;;;4.13;;
20179;SDS011;10249;48.900;9.090;2023-04-24T06:07:39;5.20;;;5.00;;
20179;SDS011;10249;48.900;9.090;2023-04-24T06:10:09;5.40;;;5.20;;
20179;SDS011;10249;48.900;9.090;2023-04-24T06:12:37;5.70;;;5.30;;
20179;SDS011;10249;48.900;9.090;2023-04-24T06:15:05;5.77;;;5.57;;
20179;SDS011;10249;48.900;9.090;2023-04-24T06:17:32;5.50;;;5.30;;
20179;SDS011;10249;48.900;9.090;2023-04-24T06:19:59;7.40;;;7.10;;
20179;SDS011;10249;48.900;9.090;2023-04-24T06:22:28;6.57;;;6.37;;
20179;SDS011;10249;48.900;9.090;2023-04-24T06:24:55;7.60;;;7.30;;
20179;SDS011;10249;48.900;9.090;2023-04-24T06:27:23;8.93;;;8.33;;
20179;SDS011;10249;48.900;9.090;2023-04-24T06:29:50;8.57;;;8.23;;
20179;SDS011;10249;48.900;9.090;2023-04-24T06:32:20;8.17;;;7.77;;
20179;SDS011;10249;48.900;9.090;2023-04-24T06:34:47;8.57;;;8.20;;
20179;SDS011;10249;48.900;9.090;2023-04-24T06:37:14;9.13;;;8.70;;
20179;SDS011;10249;48.900;9.090;2023-04-24T06:39:41;8.63;;;8.23;;
20179;SDS011;10249;48.900;9.090;2023-04-24T06:42:08;8.90;;;8.50;;
20179;SDS011;10249;48.900;9.090;2023-04-24T06:44:37;9.10;;;8.60;;
20179;SDS011;10249;48.900;9.090;2023-04-24T06:47:05;8.20;;;7.90;;
20179;SDS011;10249;48.900;9.090;2023-04-24T06:49:33;7.80;;;7.50;;
20179;SDS011;10249;48.900;9.090;2023-04-24T06:52:00;8.57;;;8.17;;
20179;SDS011;10249;48.900;9.090;2023-04-24T06:54:28;9.00;;;8.50;;
20179;SDS011;10249;48.900;9.090;2023-04-24T06:56:55;8.63;;;8.23;;
20179;SDS011;10249;48.900;9.090;2023-04-24T06:59:23;10.57;;;10.07;;
20179;SDS011;10249;48.900;9.090;2023-04-24T07:01:51;10.90;;;10.30;;
20179;SDS011;10249;48.900;9.090;2023-04-24T07:04:18;11.00;;;10.50;;
20179;SDS011;10249;48.900;9.090;2023-04-24T07:06:47;10.97;;;10.37;;
20179;SDS011;10249;48.900;9.090;2023-04-24T07:09:16;10.70;;;10.10;;
20179;SDS011;10249;48.900;9.090;2023-04-24T07:11:44;10.53;;;10.03;;
20179;SDS011;10249;48.900;9.090;2023-04-24T07:14:11;11.43;;;10.83;;
20179;SDS011;10249;48.900;9.090;2023-04-24T07:16:38;11.03;;;10.50;;
20179;SDS011;10249;48.900;9.090;2023-04-24T07:19:06;11.03;;;10.43;;
20179;SDS011;10249;48.900;9.090;2023-04-24T07:21:34;12.10;;;11.53;;
20179;SDS011;10249;48.900;9.090;2023-04-24T07:24:01;11.33;;;10.83;;
20179;SDS011;10249;48.900;9.090;2023-04-24T07:26:29;11.57;;;10.97;;
20179;SDS011;10249;48.900;9.090;2023-04-24T07:28:56;12.57;;;11.70;;
20179;SDS011;10249;48.900;9.090;2023-04-24T07:31:23;12.77;;;12.17;;
20179;SDS011;10249;48.900;9.090;2023-04-24T07:33:50;13.50;;;12.80;;
20179;SDS011;10249;48.900;9.090;2023-04-24T07:36:19;12.70;;;12.10;;
20179;SDS011;10249;48.900;9.090;2023-04-24T07:38:46;12.80;;;12.30;;
20179;SDS011;10249;48.900;9.090;2023-04-24T07:41:13;12.13;;;11.63;;
20179;SDS011;10249;48.900;9.090;2023-04-24T07:43:40;13.07;;;12.43;;
20179;SDS011;10249;48.900;9.090;2023-04-24T07:46:08;13.40;;;12.70;;
20179;SDS011;10249;48.900;9.090;2023-04-24T07:48:35;12.00;;;11.50;;
20179;SDS011;10249;48.900;9.090;2023-04-24T07:51:02;12.40;;;11.90;;
20179;SDS011;10249;48.900;9.090;2023-04-24T07:53:31;13.40;;;12.80;;
20179;SDS011;10249;48.900;9.090;2023-04-24T07:55:58;12.43;;;11.83;;
20179;SDS011;10249;48.900;9.090;2023-04-24T07:58:25;12.90;;;12.10;;
20179;SDS011;10249;48.900;9.090;2023-04-24T08:00:52;12.50;;;11.83;;
20179;SDS011;10249;48.900;9.090;2023-04-24T08:03:19;12.27;;;11.77;;
20179;SDS011;10249;48.900;9.090;2023-04-24T08:05:46;12.00;;;11.40;;
20179;SDS011;10249;48.900;9.090;2023-04-24T08:08:15;12.47;;;11.87;;
20179;SDS011;10249;48.900;9.090;2023-04-24T08:10:44;13.97;;;13.27;;
20179;SDS011;10249;48.900;9.090;2023-04-24T08:13:11;13.63;;;12.93;;
20179;SDS011;10249;48.900;9.090;2023-04-24T08:15:38;13.57;;;12.87;;
20179;SDS011;10249;48.900;9.090;2023-04-24T08:18:05;13.73;;;12.93;;
20179;SDS011;10249;48.900;9.090;2023-04-24T08:20:32;13.30;;;12.60;;
20179;SDS011;10249;48.900;9.090;2023-04-24T08:23:00;14.07;;;13.37;;
20179;SDS011;10249;48.900;9.090;2023-04-24T08:25:27;14.13;;;13.43;;
20179;SDS011;10249;48.900;9.090;2023-04-24T08:27:55;14.20;;;13.43;;
20179;SDS011;10249;48.900;9.090;2023-04-24T08:30:22;14.60;;;13.80;;
20179;SDS011;10249;48.900;9.090;2023-04-24T08:32:50;14.07;;;13.27;;
20179;SDS011;10249;48.900;9.090;2023-04-24T08:35:17;13.90;;;13.20;;
20179;SDS011;10249;48.900;9.090;2023-04-24T08:37:44;14.50;;;13.70;;
20179;SDS011;10249;48.900;9.090;2023-04-24T08:40:12;14.43;;;13.73;;
20179;SDS011;10249;48.900;9.090;2023-04-24T08:42:41;15.07;;;14.27;;
20179;SDS011;10249;48.900;9.090;2023-04-24T08:45:11;14.70;;;14.00;;
20179;SDS011;10249;48.900;9.090;2023-04-24T08:47:38;15.20;;;14.30;;
20179;SDS011;10249;48.900;9.090;2023-04-24T08:50:06;14.33;;;13.67;;
20179;SDS011;10249;48.900;9.090;2023-04-24T08:52:33;14.80;;;14.10;;
20179;SDS011;10249;48.900;9.090;2023-04-24T08:55:01;14.43;;;13.70;;
20179;SDS011;10249;48.900;9.090;2023-04-24T08:57:28;15.27;;;14.47;;
20179;SDS011;10249;48.900;9.090;2023-04-24T08:59:56;15.20;;;14.27;;
20179;SDS011;10249;48.900;9.090;2023-04-24T09:02:26;15.37;;;14.57;;
20179;SDS011;10249;48.900;9.090;2023-04-24T09:04:53;14.60;;;13.90;;
20179;SDS011;10249;48.900;9.090;2023-04-24T09:07:20;14.90;;;14.20;;
20179;SDS011;10249;48.900;9.090;2023-04-24T09:09:49;14.67;;;13.90;;
20179;SDS011;10249;48.900;9.090;2023-04-24T09:12:17;13.60;;;13.00;;
20179;SDS011;10249;48.900;9.090;2023-04-24T09:14:44;15.10;;;14.20;;
20179;SDS011;10249;48.900;9.090;2023-04-24T09:17:11;15.00;;;14.30;;
20179;SDS011;10249;48.900;9.090;2023-04-24T09:19:40;15.47;;;14.50;;
20179;SDS011;10249;48.900;9.090;2023-04-24T09:22:07;15.27;;;14.33;;
20179;SDS011;10249;48.900;9.090;2023-04-24T09:24:36;14.93;;;14.23;;
20179;SDS011;10249;48.900;9.090;2023-04-24T09:27:03;15.10;;;14.40;;
20179;SDS011;10249;48.900;9.090;2023-04-24T09:29:30;15.30;;;14.30;;
20179;SDS011;10249;48.900;9.090;2023-04-24T09:31:58;15.20;;;14.30;;
20179;SDS011;10249;48.900;9.090;2023-04-24T09:34:26;15.50;;;14.50;;
20179;SDS011;10249;48.900;9.090;2023-04-24T09:36:54;15.67;;;14.87;;
20179;SDS011;10249;48.900;9.090;2023-04-24T09:39:22;15.50;;;14.70;;
20179;SDS011;10249;48.900;9.090;2023-04-24T09:41:49;15.30;;;14.50;;
20179;SDS011;10249;48.900;9.090;2023-04-24T09:44:17;15.80;;;14.90;;
20179;SDS011;10249;48.900;9.090;2023-04-24T09:46:49;16.07;;;15.23;;
20179;SDS011;10249;48.900;9.090;2023-04-24T09:49:16;16.00;;;15.20;;
20179;SDS011;10249;48.900;9.090;2023-04-24T09:51:47;15.60;;;14.80;;
20179;SDS011;10249;48.900;9.090;2023-04-24T09:54:16;16.27;;;15.23;;
20179;SDS011;10249;48.900;9.090;2023-04-24T09:56:45;16.17;;;15.37;;
20179;SDS011;10249;48.900;9.090;2023-04-24T09:59:13;14.37;;;13.77;;
20179;SDS011;10249;48.900;9.090;2023-04-24T10:01:40;14.50;;;13.80;;
20179;SDS011;10249;48.900;9.090;2023-04-24T10:04:15;14.47;;;13.77;;
20179;SDS011;10249;48.900;9.090;2023-04-24T10:06:43;15.17;;;14.37;;
20179;SDS011;10249;48.900;9.090;2023-04-24T10:09:11;14.73;;;14.03;;
20179;SDS011;10249;48.900;9.090;2023-04-24T10:11:41;14.60;;;13.90;;
20179;SDS011;10249;48.900;9.090;2023-04-24T10:14:10;14.70;;;14.00;;
20179;SDS011;10249;48.900;9.090;2023-04-24T10:16:39;14.50;;;13.80;;
20179;SDS011;10249;48.900;9.090;2023-04-24T10:19:06;15.50;;;14.70;;
20179;SDS011;10249;48.900;9.090;2023-04-24T10:21:34;15.30;;;14.50;;
20179;SDS011;10249;48.900;9.090;2023-04-24T10:24:03;15.07;;;14.37;;
20179;SDS011;10249;48.900;9.090;2023-04-24T10:26:30;15.63;;;14.73;;
20179;SDS011;10249;48.900;9.090;2023-04-24T10:28:59;16.90;;;15.70;;
20179;SDS011;10249;48.900;9.090;2023-04-24T10:31:26;16.10;;;15.30;;
20179;SDS011;10249;48.900;9.090;2023-04-24T10:33:54;15.90;;;15.00;;
20179;SDS011;10249;48.900;9.090;2023-04-24T10:36:21;15.80;;;15.00;;
20179;SDS011;10249;48.900;9.090;2023-04-24T10:38:51;16.10;;;15.20;;
20179;SDS011;10249;48.900;9.090;2023-04-24T10:41:19;16.33;;;15.33;;
20179;SDS011;10249;48.900;9.090;2023-04-24T10:43:48;16.17;;;15.27;;
20179;SDS011;10249;48.900;9.090;2023-04-24T10:46:19;15.30;;;14.60;;
20179;SDS011;10249;48.900;9.090;2023-04-24T10:48:51;15.87;;;15.07;;
20179;SDS011;10249;48.900;9.090;2023-04-24T10:51:21;15.77;;;14.87;;
20179;SDS011;10249;48.900;9.090;2023-04-24T10:53:49;15.70;;;14.90;;
20179;SDS011;10249;48.900;9.090;2023-04-24T10:56:16;15.90;;;14.90;;
20179;SDS011;10249;48.900;9.090;2023-04-24T10:58:44;15.40;;;14.60;;
20179;SDS011;10249;48.900;9.090;2023-04-24T11:01:24;15.40;;;14.60;;
20179;SDS011;10249;48.900;9.090;2023-04-24T11:03:54;15.27;;;14.57;;
20179;SDS011;10249;48.900;9.090;2023-04-24T11:06:28;14.73;;;13.93;;
20179;SDS011;10249;48.900;9.090;2023-04-24T11:08:58;14.83;;;14.13;;
20179;SDS011;10249;48.900;9.090;2023-04-24T11:11:29;15.40;;;14.60;;
20179;SDS011;10249;48.900;9.090;2023-04-24T11:14:08;14.67;;;13.93;;
20179;SDS011;10249;48.900;9.090;2023-04-24T11:16:38;14.40;;;13.70;;
20179;SDS011;10249;48.900;9.090;2023-04-24T11:19:06;14.47;;;13.77;;
20179;SDS011;10249;48.900;9.090;2023-04-24T11:21:41;15.30;;;14.60;;
20179;SDS011;10249;48.900;9.090;2023-04-24T11:24:27;16.23;;;15.00;;
20179;SDS011;10249;48.900;9.090;2023-04-24T11:26:56;15.57;;;14.77;;
20179;SDS011;10249;48.900;9.090;2023-04-24T11:29:37;14.77;;;14.07;;
20179;SDS011;10249;48.900;9.090;2023-04-24T11:32:15;16.20;;;15.30;;
20179;SDS011;10249;48.900;9.090;2023-04-24T11:34:45;16.13;;;15.33;;
20179;SDS011;10249;48.900;9.090;2023-04-24T11:37:12;15.53;;;14.63;;
20179;SDS011;10249;48.900;9.090;2023-04-24T11:39:40;16.07;;;15.17;;
20179;SDS011;10249;48.900;9.090;2023-04-24T11:42:07;15.20;;;14.40;;
20179;SDS011;10249;48.900;9.090;2023-04-24T11:44:34;16.27;;;15.17;;
20179;SDS011;10249;48.900;9.090;2023-04-24T11:47:02;14.93;;;14.23;;
20179;SDS011;10249;48.900;9.090;2023-04-24T11:49:30;16.20;;;15.40;;
20179;SDS011;10249;48.900;9.090;2023-04-24T11:51:58;16.17;;;15.30;;
20179;SDS011;10249;48.900;9.090;2023-04-24T11:54:26;15.23;;;14.53;;
20179;SDS011;10249;48.900;9.090;2023-04-24T11:56:53;15.87;;;15.07;;
20179;SDS011;10249;48.900;9.090;2023-04-24T11:59:21;15.80;;;15.00;;
20179;SDS011;10249;48.900;9.090;2023-04-24T12:01:48;17.07;;;16.07;;
20179;SDS011;10249;48.900;9.090;2023-04-24T12:04:16;17.40;;;16.30;;
20179;SDS011;10249;48.900;9.090;2023-04-24T12:07:01;15.87;;;15.03;;
20179;SDS011;10249;48.900;9.090;2023-04-24T12:09:28;15.20;;;14.50;;
20179;SDS011;10249;48.900;9.090;2023-04-24T12:11:56;16.23;;;15.33;;
20179;SDS011;10249;48.900;9.090;2023-04-24T12:14:23;15.40;;;14.70;;
20179;SDS011;10249;48.900;9.090;2023-04-24T12:16:50;16.00;;;14.97;;
20179;SDS011;10249;48.900;9.090;2023-04-24T12:19:18;15.03;;;14.33;;
20179;SDS011;10249;48.900;9.090;2023-04-24T12:21:58;15.40;;;14.60;;
20179;SDS011;10249;48.900;9.090;2023-04-24T12:24:26;16.23;;;15.07;;
20179;SDS011;10249;48.900;9.090;2023-04-24T12:26:53;15.23;;;14.43;;
20179;SDS011;10249;48.900;9.090;2023-04-24T12:29:21;15.50;;;14.70;;
20179;SDS011;10249;48.900;9.090;2023-04-24T12:31:49;15.70;;;14.90;;
20179;SDS011;10249;48.900;9.090;2023-04-24T12:34:17;15.63;;;14.77;;
20179;SDS011;10249;48.900;9.090;2023-04-24T12:36:45;15.43;;;14.73;;
20179;SDS011;10249;48.900;9.090;2023-04-24T12:39:14;15.43;;;14.63;;
20179;SDS011;10249;48.900;9.090;2023-04-24T12:41:53;15.47;;;14.67;;
20179;SDS011;10249;48.900;9.090;2023-04-24T12:44:28;15.70;;;14.83;;
20179;SDS011;10249;48.900;9.090;2023-04-24T12:46:56;15.50;;;14.70;;
20179;SDS011;10249;48.900;9.090;2023-04-24T12:49:23;14.60;;;13.90;;
20179;SDS011;10249;48.900;9.090;2023-04-24T12:51:50;15.47;;;14.63;;
20179;SDS011;10249;48.900;9.090;2023-04-24T12:54:17;15.10;;;14.40;;
20179;SDS011;10249;48.900;9.090;2023-04-24T12:56:44;14.87;;;14.07;;
20179;SDS011;10249;48.900;9.090;2023-04-24T12:59:13;15.20;;;14.40;;
20179;SDS011;10249;48.900;9.090;2023-04-24T13:01:40;14.67;;;14.00;;
20179;SDS011;10249;48.900;9.090;2023-04-24T13:04:08;15.67;;;14.77;;
20179;SDS011;10249;48.900;9.090;2023-04-24T13:06:35;14.90;;;14.20;;
20179;SDS011;10249;48.900;9.090;2023-04-24T13:09:02;15.13;;;14.43;;
20179;SDS011;10249;48.900;9.090;2023-04-24T13:11:29;15.87;;;14.87;;
20179;SDS011;10249;48.900;9.090;2023-04-24T13:13:56;15.20;;;14.30;;
20179;SDS011;10249;48.900;9.090;2023-04-24T13:16:24;15.80;;;14.77;;
20179;SDS011;10249;48.900;9.090;2023-04-24T13:18:52;16.27;;;15.37;;
20179;SDS011;10249;48.900;9.090;2023-04-24T13:21:19;15.70;;;14.90;;
20179;SDS011;10249;48.900;9.090;2023-04-24T13:23:46;16.37;;;15.33;;
20179;SDS011;10249;48.900;9.090;2023-04-24T13:26:13;15.83;;;15.03;;
20179;SDS011;10249;48.900;9.090;2023-04-24T13:28:40;16.47;;;15.57;;
20179;SDS011;10249;48.900;9.090;2023-04-24T13:31:07;15.63;;;14.83;;
20179;SDS011;10249;48.900;9.090;2023-04-24T13:33:35;16.20;;;15.20;;
20179;SDS011;10249;48.900;9.090;2023-04-24T13:36:02;14.87;;;14.03;;
20179;SDS011;10249;48.900;9.090;2023-04-24T13:38:30;16.73;;;15.73;;
20179;SDS011;10249;48.900;9.090;2023-04-24T13:40:57;17.13;;;16.00;;
20179;SDS011;10249;48.900;9.090;2023-04-24T13:43:24;16.07;;;15.10;;
20179;SDS011;10249;48.900;9.090;2023-04-24T13:45:51;16.93;;;15.93;;
20179;SDS011;10249;48.900;9.090;2023-04-24T13:48:18;16.10;;;15.20;;
20179;SDS011;10249;48.900;9.090;2023-04-24T13:50:47;16.03;;;15.23;;
20179;SDS011;10249;48.900;9.090;2023-04-24T13:53:14;16.43;;;15.50;;
20179;SDS011;10249;48.900;9.090;2023-04-24T13:55:41;17.60;;;16.40;;
20179;SDS011;10249;48.900;9.090;2023-04-24T13:58:08;16.70;;;15.63;;
20179;SDS011;10249;48.900;9.090;2023-04-24T14:00:35;17.30;;;16.30;;
20179;SDS011;10249;48.900;9.090;2023-04-24T14:03:03;17.20;;;16.00;;
20179;SDS011;10249;48.900;9.090;2023-04-24T14:05:30;15.50;;;14.70;;
20179;SDS011;10249;48.900;9.090;2023-04-24T14:07:59;17.43;;;16.33;;
20179;SDS011;10249;48.900;9.090;2023-04-24T14:10:26;16.60;;;15.67;;
20179;SDS011;10249;48.900;9.090;2023-04-24T14:12:53;16.63;;;15.70;;
20179;SDS011;10249;48.900;9.090;2023-04-24T14:15:20;16.33;;;15.43;;
20179;SDS011;10249;48.900;9.090;2023-04-24T14:17:47;16.80;;;15.80;;
20179;SDS011;10249;48.900;9.090;2023-04-24T14:20:15;16.17;;;15.27;;
20179;SDS011;10249;48.900;9.090;2023-04-24T14:22:42;16.87;;;15.87;;
20179;SDS011;10249;48.900;9.090;2023-04-24T14:25:10;16.77;;;15.70;;
20179;SDS011;10249;48.900;9.090;2023-04-24T14:27:37;15.30;;;14.60;;
20179;SDS011;10249;48.900;9.090;2023-04-24T14:30:05;16.70;;;15.80;;
20179;SDS011;10249;48.900;9.090;2023-04-24T14:32:32;16.37;;;15.47;;
20179;SDS011;10249;48.900;9.090;2023-04-24T14:35:00;14.93;;;14.23;;
20179;SDS011;10249;48.900;9.090;2023-04-24T14:37:27;16.47;;;15.53;;